Terminal Aerodrome Forecast
Issued by NWS

Home | Current Version | Previous Version | Text Only | Print | Product List | Glossary On
Versions: 1 2 3 4 5 6 7 8 9 10 11 12 13 14 15 16 17
000
FTAK31 PAJN 282300
TAFAKT
TAF
PAKT 282330Z 2900/2924 14012KT 6SM -SHRA SCT020 BKN030 OVC045
      TEMPO 2900/2904 14006KT 3SM -SHRA BR SCT015 BKN025 OVC040
     FM290900 14006KT P6SM VCSH OVC050
     FM291600 14011KT P6SM VCSH BKN050 OVC070
      AMD LTD TO CLD VIS AND WIND 2906/2915=

USA.gov is the U.S. government's official web portal to all federal, state and local government web resources and services.